Guion, Indiana
Current Conditions -  °F | °C
As of 9:55 PM on Sunday 23 Nov 2014 (Local Time) from K4I7 Reporting Station
Light Rain Light Rain  
Wind Chill: 50°   Ceiling: 400
Heat Index: 50°   Visibility: 3mi
Dew Point: 50°   Wind: 0mph
Humidity: 100%   Direction: NA
Pressure: 29.2"   Gusts: NA
Location:  39.7714°N, 87.1705°W
Report Text: K4I7 240255Z AUTO 00000KT 3SM -RA BKN004 OVC009 10/10 A2920 RMK AO2 P0018
Loading
Personal Weather Stations






























Interactive Weather Map New forecast layout! Learn more

10-Day Weather Forecast

Advertisements
Track Severe Weather on mobile